KK6DR Weather Reports


Display with metric or nautical units.
time (UTC)temp
F
wind
direction
speed
MPH
gust
MPH
rain 1hr
in
rain 24hr
in
rain mn
in
humidity
%
barometer
mb
20190526064511 47 16 1.0 2.0 0.00 0.35 0.35 95 1012.3
20190526063012 47 16 0.0 0.0 0.00 0.35 0.35 95 1012.4
20190526061519 47 16 0.0 3.0 0.00 0.35 0.35 95 1012.4
20190526060011 46 15 1.0 3.0 0.00 0.35 0.35 95 1012.4
20190526054509 47 15 1.0 3.0 0.00 0.35 0.35 94 1012.3
20190526053020 47 15 0.0 2.0 0.00 0.35 0.35 94 1012.3
20190526051504 47 15 0.0 1.0 0.00 0.35 0.35 94 1012.4
20190526044642 48 15 0.0 0.0 0.00 0.35 0.35 94 1012.3
20190526043147 49 15 0.0 1.0 0.00 0.35 0.35 94 1012.3
20190526041625 49 15 0.0 0.0 0.00 0.35 0.35 94 1012.2
20190526040129 50 15 0.0 0.0 0.00 0.35 0.35 94 1012.2
20190526034555 50 15 0.0 0.0 0.00 0.35 0.35 94 1012.3
20190526033119 50 15 0.0 3.0 0.00 0.35 0.35 94 1012.4
20190526031610 50 15 0.0 4.0 0.00 0.35 0.35 94 1012.5
20190526030132 50 24 0.0 4.0 0.00 0.35 0.35 94 1012.6
20190526024633 51 24 0.0 5.0 0.00 0.35 0.35 94 1012.7
20190526023130 51 50 0.0 6.0 0.01 0.35 0.35 94 1012.6
20190526021622 51 22 0.0 2.0 0.02 0.35 0.35 94 1012.7
20190526020109 51 24 1.0 4.0 0.03 0.35 0.35 94 1012.8
20190526014632 51 350 0.0 3.0 0.04 0.35 0.35 94 1012.9
20190526013110 51 348 0.0 3.0 0.04 0.34 0.34 94 1013.1
20190526011623 51 348 0.0 4.0 0.03 0.33 0.33 94 1013.1
20190526010100 51 342 0.0 5.0 0.03 0.32 0.32 94 1013.2
20190526004611 50 299 1.0 10.0 0.02 0.31 0.31 93 1013.3
20190526003113 50 304 9.0 14.0 0.02 0.30 0.30 93 1013.5
20190526001620 50 303 6.0 12.0 0.03 0.30 0.30 93 1013.8
20190526000127 51 311 10.0 14.0 0.03 0.28 0.28 93 1013.9
20190525234538 51 325 4.0 10.0 0.03 0.28 0.28 94 1013.9
20190525233138 51 309 6.0 12.0 0.03 0.28 0.28 94 1014.0
20190525231550 51 314 5.0 12.0 0.03 0.27 0.27 94 1014.0
20190525230030 51 350 4.0 13.0 0.03 0.26 0.26 93 1014.1
20190525224547 51 5 5.0 12.0 0.02 0.25 0.25 94 1014.1
20190525223029 51 317 6.0 21.0 0.03 0.25 0.25 94 1014.2
20190525221548 52 333 12.0 22.0 0.03 0.24 0.24 95 1014.3
20190525220037 52 338 11.0 18.0 0.02 0.23 0.23 95 1014.5
20190525214527 52 273 9.0 17.0 0.03 0.23 0.23 95 1014.6
20190525213018 52 300 12.0 22.0 0.03 0.22 0.22 95 1014.8
20190525211525 52 313 9.0 16.0 0.04 0.21 0.21 95 1014.8
20190525210033 52 297 9.0 15.0 0.06 0.21 0.21 95 1014.9
20190525204552 52 315 6.0 14.0 0.06 0.20 0.20 95 1015.1
20190525203020 52 284 10.0 17.0 0.06 0.19 0.19 96 1015.3
20190525201506 52 325 7.0 17.0 0.05 0.17 0.17 96 1015.4
20190525200003 53 317 11.0 17.0 0.04 0.15 0.15 95 1015.6
20190525194502 53 306 11.0 16.0 0.03 0.15 0.14 95 1015.6
20190525193312 53 285 12.0 18.0 0.03 0.14 0.13 95 1015.7
20190525191757 53 290 10.0 15.0 0.02 0.13 0.12 95 1015.8
20190525190138 54 294 3.0 8.0 0.02 0.12 0.11 95 1015.8
20190525184757 54 309 6.0 9.0 0.02 0.12 0.11 95 1015.6
20190525183216 54 290 3.0 5.0 0.01 0.11 0.10 95 1015.7
20190525181649 54 250 4.0 8.0 0.01 0.11 0.10 94 1015.8
20190525180239 54 208 2.0 4.0 0.00 0.10 0.09 95 1015.7
20190525174750 54 208 1.0 6.0 0.00 0.10 0.09 95 1015.9
20190525173337 54 212 0.0 5.0 0.00 0.10 0.09 94 1015.9
20190525171644 55 213 2.0 6.0 0.00 0.10 0.09 94 1015.9
20190525170326 55 221 1.0 5.0 0.00 0.10 0.09 95 1016.0
20190525164712 56 220 2.0 5.0 0.00 0.11 0.09 97 1016.2
20190525163103 54 190 0.0 4.0 0.00 0.11 0.09 96 1016.1
20190525161733 54 190 1.0 5.0 0.00 0.11 0.09 96 1016.3
20190525160059 54 103 1.0 3.0 0.00 0.11 0.09 96 1016.5
20190525154553 53 104 3.0 7.0 0.01 0.15 0.09 96 1016.4
20190525153105 53 100 3.0 8.0 0.02 0.15 0.09 96 1016.2
20190525151605 52 103 3.0 6.0 0.02 0.15 0.09 96 1016.5
20190525150137 52 160 2.0 5.0 0.03 0.15 0.09 95 1016.6
20190525144623 52 161 3.0 5.0 0.03 0.14 0.08 95 1016.7
20190525143132 52 283 0.0 3.0 0.03 0.13 0.07 95 1016.9
20190525141614 52 294 0.0 2.0 0.04 0.13 0.07 95 1017.1
20190525140128 51 294 0.0 3.0 0.03 0.12 0.06 95 1017.1
20190525134633 51 294 0.0 0.0 0.02 0.11 0.05 95 1017.0
20190525133050 51 294 0.0 2.0 0.01 0.10 0.04 95 1016.8
20190525131616 51 294 0.0 0.0 0.01 0.09 0.03 95 1016.9
20190525130058 51 294 0.0 1.0 0.02 0.09 0.03 94 1016.9
20190525124601 51 294 0.0 3.0 0.02 0.09 0.03 94 1016.9
20190525121601 51 294 0.0 1.0 0.01 0.08 0.02 94 1017.1
20190525120025 52 294 0.0 5.0 0.00 0.07 0.01 94 1017.0
20190525114534 52 314 7.0 10.0 0.00 0.07 0.01 94 1017.2
20190525113132 52 290 6.0 11.0 0.00 0.07 0.01 94 1017.3
20190525111604 52 309 4.0 9.0 0.00 0.07 0.01 94 1017.3
20190525110020 52 300 3.0 8.0 0.00 0.07 0.01 94 1017.4
20190525104522 52 311 4.0 8.0 0.00 0.07 0.01 94 1017.5
20190525103021 52 304 1.0 3.0 0.00 0.07 0.01 94 1017.5
20190525101522 52 305 1.0 6.0 0.00 0.07 0.01 94 1017.5
20190525100023 52 294 1.0 5.0 0.00 0.07 0.01 94 1017.6
20190525094530 52 308 4.0 9.0 0.00 0.07 0.01 94 1017.7
20190525093013 52 322 8.0 11.0 0.00 0.07 0.01 94 1017.8
20190525091514 52 311 4.0 8.0 0.00 0.07 0.01 94 1017.9
20190525090006 52 306 6.0 12.0 0.00 0.07 0.01 93 1017.9
20190525084509 52 317 0.0 3.0 0.00 0.07 0.01 93 1018.0
20190525083004 52 310 2.0 6.0 0.01 0.07 0.01 93 1017.9
20190525081502 52 294 7.0 11.0 0.01 0.07 0.01 93 1018.0
20190525080233 52 284 6.0 11.0 0.01 0.07 0.01 92 1017.9
20190525074718 52 302 0.0 3.0 0.01 0.07 0.01 92 1018.0
20190525073242 52 307 3.0 9.0 0.00 0.06 0.00 92 1018.1
20190525071624 52 313 7.0 13.0 0.00 0.06 0.00 91 1018.1
20190525070143 52 304 3.0 10.0 0.00 0.06 0.00 91 1018.2